Time;durP1;ratioP1;P1;durP2;ratioP2;P2;SDS_P1;SDS_P2;PMS_P1;PMS_P2;Temp;Humidity;BMP_temperature;BMP_pressure;BME280_temperature;BME280_humidity;BME280_pressure;Samples;Min_cycle;Max_cycle;Signal;HPM_P1;HPM_P2
2021/08/18 12:11:06;;;;;;;8.58;5.65;;;;;;;22.47;49.50;99914.42;1866395;76;26801;-67
2021/08/18 12:13:45;;;;;;;8.10;5.47;;;;;;;22.52;48.85;99895.48;1755888;81;25639;-67
2021/08/18 12:16:26;;;;;;;;;;;;;;;22.62;48.84;99906.89;1772458;81;27468;-67
2021/08/18 12:18:54;;;;;;;;;;;;;;;22.52;47.52;99907.89;1772160;81;25624;-68
2021/08/18 12:21:26;;;;;;;;;;;;;;;22.18;46.62;99906.98;1772404;81;25609;-68
2021/08/18 12:23:55;;;;;;;;;;;;;;;21.80;47.08;99904.52;1772408;81;25728;-69
2021/08/18 12:26:32;;;;;;;;;;;;;;;21.53;47.79;99907.66;1772357;80;25699;-67
2021/08/18 12:29:01;;;;;;;;;;;;;;;21.34;48.34;99903.30;1771812;81;27534;-65
2021/08/18 12:31:29;;;;;;;;;;;;;;;21.15;48.44;99903.68;1772342;80;25687;-66
2021/08/18 12:34:11;;;;;;;;;;;;;;;21.00;48.92;99908.36;1766929;81;25934;-66
2021/08/18 12:36:37;;;;;;;;;;;;;;;20.84;49.22;99903.19;1772316;80;25744;-66
2021/08/18 12:39:05;;;;;;;;;;;;;;;20.73;49.87;99905.13;1772358;80;25656;-66
2021/08/18 12:41:33;;;;;;;;;;;;;;;20.74;50.50;99907.50;1773269;80;28428;-66
2021/08/18 12:44:09;;;;;;;;;;;;;;;20.92;50.81;99910.28;1772679;81;25677;-64
2021/08/18 12:46:38;;;;;;;;;;;;;;;21.31;51.59;99902.70;1773190;81;25427;-64
2021/08/18 12:49:27;;;;;;;;;;;;;;;22.06;51.40;99899.75;1773438;81;25396;-64
2021/08/18 12:52:00;;;;;;;;;;;;;;;22.52;50.05;99903.76;1773602;81;25550;-64
2021/08/18 12:54:26;;;;;;;;;;;;;;;22.64;50.01;99892.88;1773536;81;27722;-64
2021/08/18 12:56:53;;;;;;;;;;;;;;;22.87;48.71;99891.00;1745337;81;25650;-65
2021/08/18 12:59:19;;;;;;;;;;;;;;;22.81;48.77;99900.09;1773603;80;25478;-64
2021/08/18 13:01:46;;;;;;;;;;;;;;;22.70;47.47;99905.67;1773474;80;25414;-65
2021/08/18 13:04:12;;;;;;;;;;;;;;;22.44;46.93;99896.73;1773651;81;25439;-64
2021/08/18 13:06:38;;;;;;;;;;;;;;;22.16;46.85;99896.96;1773573;81;27724;-64
2021/08/18 13:09:05;;;;;;;;;;;;;;;21.80;45.75;99901.76;1773415;80;25474;-64
2021/08/18 13:11:32;;;;;;;;;;;;;;;21.50;46.79;99898.03;1776550;80;25643;-64
2021/08/18 13:13:59;;;;;;;;;;;;;;;21.33;47.40;99896.81;1776531;80;26099;-65
2021/08/18 13:16:25;;;;;;;;;;;;;;;21.11;47.86;99893.25;1776533;80;25586;-63
2021/08/18 13:18:51;;;;;;;;;;;;;;;20.95;48.13;99897.14;1776509;80;27663;-63
2021/08/18 13:21:18;;;;;;;;;;;;;;;20.81;48.59;99893.77;1776193;80;25392;-64
2021/08/18 13:23:44;;;;;;;;;;;;;;;20.74;49.14;99899.82;1775896;80;25500;-63
2021/08/18 13:26:10;;;;;;;;;;;;;;;20.72;49.35;99891.96;1775934;80;25937;-64
2021/08/18 13:28:38;;;;;;;;;;;;;;;20.74;49.25;99888.83;1776055;80;25609;-64
2021/08/18 13:31:04;;;;;;;;;;;;;;;20.74;49.12;99888.27;1775843;80;27531;-64
2021/08/18 13:33:30;;;;;;;;;;;;;;;20.77;49.17;99892.18;1775938;80;25928;-63
2021/08/18 13:35:56;;;;;;;;;;;;;;;20.76;49.32;99890.03;1775976;80;25462;-65
2021/08/18 13:38:22;;;;;;;;;;;;;;;20.75;48.69;99895.91;1775848;80;25542;-65
2021/08/18 13:40:48;;;;;;;;;;;;;;;20.71;49.13;99891.78;1776015;80;25570;-63
2021/08/18 13:43:14;;;;;;;;;;;;;;;20.85;49.33;99893.19;1775951;80;27590;-63
2021/08/18 13:45:40;;;;;;;;;;;;;;;21.14;49.39;99887.75;1775787;80;26084;-63
2021/08/18 13:48:06;;;;;;;;;;;;;;;21.43;49.25;99892.68;1776020;80;25384;-63
2021/08/18 13:50:32;;;;;;;;;;;;;;;21.87;49.34;99896.84;1775895;80;25660;-63
2021/08/18 13:52:58;;;;;;;;;;;;;;;22.22;48.56;99896.55;1775989;80;25610;-64
2021/08/18 13:55:24;;;;;;;;;;;;;;;22.37;48.04;99892.59;1775968;80;27533;-65
2021/08/18 13:57:51;;;;;;;;;;;;;;;22.50;46.36;99888.82;1775881;80;26100;-64
2021/08/18 14:00:17;;;;;;;;;;;;;;;22.46;46.78;99892.17;1775981;80;25664;-64
2021/08/18 14:02:43;;;;;;;;;;;;;;;22.34;46.65;99885.16;1775908;80;25534;-64
2021/08/18 14:05:12;;;;;;;;;;;;;;;22.16;46.44;99893.43;1749998;80;25644;-64
2021/08/18 14:07:38;;;;;;;;;;;;;;;21.97;46.39;99901.54;1775978;80;28112;-65
2021/08/18 14:10:05;;;;;;;;;;;;;;;21.76;46.26;99890.76;1774759;80;26099;-64
2021/08/18 14:12:31;;;;;;;;;;;;;;;21.50;46.68;99894.68;1772840;81;25538;-64
2021/08/18 14:14:57;;;;;;;;;;;;;;;21.37;47.10;99890.14;1772851;80;25538;-65
2021/08/18 14:17:23;;;;;;;;;;;;;;;21.27;47.69;99887.57;1773023;80;25570;-65
2021/08/18 14:19:50;;;;;;;;;;;;;;;21.21;48.10;99892.47;1772938;80;27684;-65
2021/08/18 14:22:16;;;;;;;;;;;;;;;21.13;48.08;99890.31;1772885;80;25614;-65
2021/08/18 14:24:42;;;;;;;;;;;;;;;21.05;48.21;99892.25;1772918;80;25372;-65
2021/08/18 14:27:08;;;;;;;;;;;;;;;21.02;48.70;99904.63;1772729;80;25640;-65
2021/08/18 14:29:34;;;;;;;;;;;;;;;20.95;49.02;99890.87;1768388;80;25854;-65
2021/08/18 14:32:01;;;;;;;;;;;;;;;20.89;48.90;99888.50;1744960;81;27612;-65
2021/08/18 14:34:28;;;;;;;;;;;;;;;20.81;48.55;99893.77;1714888;82;25644;-64
2021/08/18 14:36:54;;;;;;;;;;;;;;;20.73;48.88;99890.02;1742228;82;25619;-64
2021/08/18 14:39:21;;;;;;;;;;;;;;;20.70;49.48;99886.07;1742192;82;25879;-64
2021/08/18 14:41:50;;;;;;;;;;;;;;;20.74;49.86;99896.50;1742233;82;25457;-65
2021/08/18 14:44:15;;;;;;;;;;;;;;;20.77;49.38;99884.74;1741982;82;27539;-65
2021/08/18 14:46:41;;;;;;;;;;;;;;;20.76;49.26;99884.53;1742209;82;25460;-65
2021/08/18 14:49:07;;;;;;;;;;;;;;;20.78;49.39;99883.55;1742166;82;25547;-65
2021/08/18 14:51:33;;;;;;;;;;;;;;;20.77;49.10;99883.94;1742189;82;27330;-65
2021/08/18 14:53:59;;;;;;;;;;;;;;;20.72;49.04;99878.22;1742262;82;25630;-65
2021/08/18 14:56:25;;;;;;;;;;;;;;;20.63;49.21;99879.97;1742183;82;27461;-65
2021/08/18 14:58:51;;;;;;;;;;;;;;;20.57;48.70;99873.25;1742180;82;25465;-65
2021/08/18 15:01:17;;;;;;;;;;;;;;;20.48;49.45;99877.74;1741840;82;25770;-65
2021/08/18 15:03:43;;;;;;;;;;;;;;;20.41;49.52;99874.94;1741415;82;25457;-65
2021/08/18 15:06:09;;;;;;;;;;;;;;;20.37;50.11;99876.89;1742337;82;25237;-64
2021/08/18 15:08:36;;;;;;;;;;;;;;;20.38;50.33;99876.30;1742376;82;27604;-65
2021/08/18 15:11:03;;;;;;;;;;;;;;;20.38;50.66;99882.60;1742108;82;25531;-64
2021/08/18 15:13:30;;;;;;;;;;;;;;;20.39;50.93;99877.89;1742355;82;25563;-64
2021/08/18 15:15:56;;;;;;;;;;;;;;;20.37;50.85;99878.27;1742278;82;25436;-65
2021/08/18 15:18:22;;;;;;;;;;;;;;;20.38;51.00;99879.05;1742368;82;25559;-66
2021/08/18 15:20:48;;;;;;;;;;;;;;;20.44;51.08;99880.27;1742473;82;27428;-65
2021/08/18 15:23:15;;;;;;;;;;;;;;;20.51;50.76;99874.20;1728631;82;25469;-77
2021/08/18 15:25:41;;;;;;;;;;;;;;;20.59;51.42;99872.88;1750470;82;25624;-66
2021/08/18 15:28:07;;;;;;;;;;;;;;;20.65;51.52;99866.65;1750563;81;25474;-80
2021/08/18 15:30:33;;;;;;;;;;;;;;;20.63;51.40;99870.34;1759903;78;25401;-63
2021/08/18 15:32:59;;;;;;;;;;;;;;;20.57;52.13;99867.77;1774329;80;27577;-62
2021/08/18 15:35:27;;;;;;;;;;;;;;;20.63;51.65;99870.94;1774424;80;25460;-62
2021/08/18 15:37:59;;;;;;;;;;;;;;;20.68;51.96;99867.22;1774462;81;25512;-62
2021/08/18 15:40:27;;;;;;;;;;;;;;;20.61;51.45;99865.02;1773630;81;25603;-63
2021/08/18 15:42:53;;;;;;;;;;;;;;;20.50;51.40;99865.77;1774541;80;25630;-63
2021/08/18 15:45:19;;;;;;;;;;;;;;;20.34;51.02;99868.83;1774333;81;28193;-63
2021/08/18 15:47:46;;;;;;;;;;;;;;;20.30;51.64;99865.89;1774489;81;25619;-63
2021/08/18 15:50:13;;;;;;;;;;;;;;;20.30;51.93;99868.63;1774378;81;25604;-63
2021/08/18 15:52:40;;;;;;;;;;;;;;;20.25;51.70;99864.88;1774371;81;25463;-63
2021/08/18 15:55:07;;;;;;;;;;;;;;;20.25;51.30;99871.16;1774547;81;25602;-62
2021/08/18 15:57:34;;;;;;;;;;;;;;;20.17;50.96;99863.27;1774543;80;27543;-62
2021/08/18 16:00:00;;;;;;;;;;;;;;;20.13;51.29;99864.03;1774328;81;25746;-62
2021/08/18 16:02:26;;;;;;;;;;;;;;;20.15;51.50;99865.80;1774515;80;25607;-63
2021/08/18 16:04:52;;;;;;;;;;;;;;;20.15;51.77;99867.77;1786252;78;25723;-62
2021/08/18 16:07:18;;;;;;;;;;;;;;;20.12;51.82;99858.33;1761751;80;25671;-62
2021/08/18 16:09:44;;;;;;;;;;;;;;;20.03;50.85;99883.20;1791354;80;27675;-62
2021/08/18 16:12:11;;;;;;;;;;;;;;;19.93;50.96;99857.25;1785220;80;25598;-62
2021/08/18 16:14:38;;;;;;;;;;;;;;;19.90;51.00;99857.45;1781480;80;25399;-62
2021/08/18 16:17:06;;;;;;;;;;;;;;;19.88;51.30;99860.36;1781616;80;26242;-62
2021/08/18 16:19:32;;;;;;;;;;;;;;;19.84;51.31;99858.19;1781704;80;25608;-63
2021/08/18 16:21:59;;;;;;;;;;;;;;;19.82;51.22;99859.13;1781520;80;29660;-63
2021/08/18 16:24:26;;;;;;;;;;;;;;;19.79;51.19;99864.81;1781522;80;25588;-63
2021/08/18 16:26:52;;;;;;;;;;;;;;;19.75;50.93;99853.81;1781509;80;25383;-64
2021/08/18 16:29:18;;;;;;;;;;;;;;;19.69;51.16;99863.53;1780726;80;25688;-64
2021/08/18 16:31:50;;;;;;;;;;;;;;;19.65;51.47;99861.36;1780772;80;25728;-63
2021/08/18 16:34:14;;;;;;;;;;;;;;;19.56;51.39;99858.95;1780307;80;27279;-63
2021/08/18 16:36:41;;;;;;;;;;;;;;;19.48;51.18;99864.17;1780695;80;25744;-63
2021/08/18 16:39:48;;;;;;;5.05;3.10;;;;;;;19.46;51.81;99866.52;1867398;76;26216;-67
2021/08/18 16:42:17;;;;;;;5.47;3.33;;;;;;;19.39;51.48;99862.31;1823518;78;25638;-67
2021/08/18 16:44:44;;;;;;;6.95;3.62;;;;;;;19.41;51.65;99866.27;1823573;78;28113;-70
2021/08/18 16:47:10;;;;;;;7.17;3.35;;;;;;;19.40;51.19;99859.20;1823544;78;25623;-69
2021/08/18 16:49:38;;;;;;;6.78;3.05;;;;;;;19.39;50.90;99863.13;1823486;78;25711;-72
2021/08/18 16:52:06;;;;;;;4.45;3.22;;;;;;;19.37;51.04;99867.40;1823492;78;25710;-72
2021/08/18 16:54:34;;;;;;;3.83;3.08;;;;;;;19.34;51.03;99861.30;1823611;78;26359;-70
2021/08/18 16:57:01;;;;;;;3.72;2.85;;;;;;;19.32;51.01;99866.38;1822499;78;28162;-72
2021/08/18 16:59:29;;;;;;;4.58;3.42;;;;;;;19.29;51.14;99861.08;1813792;78;25727;-72
2021/08/18 17:01:56;;;;;;;3.42;3.12;;;;;;;19.25;51.30;99865.72;1804540;78;25763;-73
2021/08/18 17:04:22;;;;;;;5.42;3.42;;;;;;;19.22;51.26;99862.36;1808342;78;26114;-72
2021/08/18 17:06:49;;;;;;;6.92;3.47;;;;;;;19.18;51.37;99865.67;1804973;77;25620;-72
2021/08/18 17:09:16;;;;;;;7.28;3.72;;;;;;;19.14;51.56;99860.75;1750904;81;27549;-72
2021/08/18 17:11:42;;;;;;;6.97;3.65;;;;;;;19.11;51.74;99862.87;1754487;80;25647;-72
2021/08/18 17:14:10;;;;;;;9.73;4.30;;;;;;;19.07;51.82;99872.43;1744633;82;26057;-73
2021/08/18 17:16:42;;;;;;;4.80;3.30;;;;;;;19.03;52.02;99864.17;1744359;82;25852;-72
2021/08/18 17:19:09;;;;;;;5.22;3.42;;;;;;;18.98;52.19;99866.45;1744014;82;26493;-72
2021/08/18 17:21:43;;;;;;;4.30;3.37;;;;;;;18.90;52.36;99864.80;1738144;82;28154;-73
2021/08/18 17:24:10;;;;;;;7.35;3.45;;;;;;;18.84;52.36;99869.83;1715288;83;25929;-72
2021/08/18 17:26:38;;;;;;;5.70;3.25;;;;;;;18.74;52.54;99869.88;1715338;83;25907;-72
2021/08/18 17:29:05;;;;;;;7.53;3.65;;;;;;;18.69;52.79;99872.18;1714840;83;25640;-72
2021/08/18 17:31:31;;;;;;;4.37;3.25;;;;;;;18.63;52.77;99877.21;1714529;83;25956;-72
2021/08/18 17:34:00;;;;;;;4.40;2.90;;;;;;;18.56;52.76;99875.73;1714321;83;27600;-72
2021/08/18 17:36:28;;;;;;;4.78;2.98;;;;;;;18.49;52.82;99872.36;1714765;83;26500;-72
2021/08/18 17:38:56;;;;;;;5.40;3.20;;;;;;;18.44;52.88;99874.84;1715290;83;25744;-73
2021/08/18 17:41:24;;;;;;;5.85;3.58;;;;;;;18.40;52.96;99875.94;1715267;83;25879;-72
2021/08/18 17:43:52;;;;;;;4.40;3.25;;;;;;;18.34;53.08;99886.44;1715342;83;26136;-72
2021/08/18 17:46:19;;;;;;;7.03;3.60;;;;;;;18.28;53.21;99875.00;1715199;83;27673;-73
2021/08/18 17:48:47;;;;;;;8.30;3.87;;;;;;;18.25;53.27;99885.35;1715260;82;25906;-72
2021/08/18 17:51:14;;;;;;;4.70;3.72;;;;;;;18.23;53.44;99888.23;1714772;83;25706;-72
2021/08/18 17:53:42;;;;;;;5.08;3.15;;;;;;;18.20;53.49;99893.88;1714735;82;26379;-72
2021/08/18 17:56:10;;;;;;;8.48;4.15;;;;;;;18.15;53.57;99895.58;1714808;83;25657;-72
2021/08/18 17:58:36;;;;;;;5.87;3.33;;;;;;;18.09;53.56;99897.83;1714785;83;27629;-72
2021/08/18 18:01:05;;;;;;;4.70;3.72;;;;;;;18.04;53.67;99896.77;1714623;83;25785;-72
2021/08/18 18:03:34;;;;;;;4.87;3.50;;;;;;;17.99;53.79;99895.72;1714989;83;25748;-71
2021/08/18 18:06:02;;;;;;;6.60;3.35;;;;;;;17.92;53.75;99892.89;1714858;83;25777;-72
2021/08/18 18:08:30;;;;;;;6.65;3.67;;;;;;;17.87;53.85;99893.20;1714697;83;26338;-71
2021/08/18 18:10:57;;;;;;;8.73;3.40;;;;;;;17.80;53.99;99890.34;1714711;83;27487;-71
2021/08/18 18:13:25;;;;;;;4.28;3.17;;;;;;;17.74;54.07;99888.47;1714605;83;25757;-70
2021/08/18 18:15:54;;;;;;;5.42;3.55;;;;;;;17.67;54.05;99896.57;1714745;83;25722;-71
2021/08/18 18:18:22;;;;;;;6.30;3.58;;;;;;;17.60;54.31;99896.47;1714956;83;26261;-71
2021/08/18 18:20:49;;;;;;;5.33;3.22;;;;;;;17.53;54.33;99901.23;1714794;83;25718;-71
2021/08/18 18:23:18;;;;;;;5.28;3.10;;;;;;;17.47;54.54;99908.96;1714733;82;28081;-72
2021/08/18 18:25:46;;;;;;;4.92;3.47;;;;;;;17.39;54.78;99905.89;1714744;83;26364;-71
2021/08/18 18:28:13;;;;;;;5.17;3.75;;;;;;;17.31;54.93;99908.28;1714686;82;25874;-71
2021/08/18 18:30:41;;;;;;;6.35;4.03;;;;;;;17.24;55.06;99905.42;1686208;83;25811;-72
2021/08/18 18:33:09;;;;;;;6.45;3.95;;;;;;;17.16;55.17;99904.50;1714756;83;25712;-72
2021/08/18 18:35:36;;;;;;;8.13;3.92;;;;;;;17.09;55.70;99904.38;1714732;83;27910;-72
2021/08/18 18:38:04;;;;;;;6.40;3.98;;;;;;;16.99;56.11;99905.75;1714592;83;25740;-71
2021/08/18 18:40:31;;;;;;;4.70;3.90;;;;;;;16.89;56.25;99900.88;1730221;82;25780;-61
2021/08/18 18:43:00;;;;;;;6.58;4.15;;;;;;;16.80;56.54;99901.87;1730693;82;25857;-61
2021/08/18 18:45:28;;;;;;;10.43;3.72;;;;;;;16.73;56.88;99905.03;1730725;82;25653;-61
2021/08/18 18:47:55;;;;;;;4.80;4.08;;;;;;;16.64;56.99;99906.61;1730461;82;27474;-62
2021/08/18 18:50:23;;;;;;;6.00;3.95;;;;;;;16.54;57.06;99897.62;1730626;82;25677;-61
2021/08/18 18:52:50;;;;;;;6.97;3.90;;;;;;;16.47;57.41;99897.48;1730549;82;25714;-61
2021/08/18 18:55:17;;;;;;;5.85;3.90;;;;;;;16.38;57.65;99894.39;1730431;82;25924;-61
2021/08/18 18:57:45;;;;;;;7.97;3.65;;;;;;;16.31;57.89;99896.97;1730668;82;25691;-61
2021/08/18 19:00:13;;;;;;;10.05;4.00;;;;;;;16.22;58.25;99893.06;1730444;82;28213;-60
2021/08/18 19:02:40;;;;;;;6.03;3.87;;;;;;;16.16;58.27;99890.98;1730420;82;25705;-60
2021/08/18 19:05:09;;;;;;;7.95;4.15;;;;;;;16.09;58.67;99888.08;1730420;82;25663;-60
2021/08/18 19:07:38;;;;;;;5.83;4.08;;;;;;;16.02;58.81;99888.16;1730723;82;25683;-60
2021/08/18 19:10:10;;;;;;;;;;;;;;;15.93;59.17;99888.13;1706499;82;25770;-61
2021/08/18 19:12:38;;;;;;;6.33;4.50;;;;;;;15.82;59.44;99879.13;1730499;82;27482;-61
2021/08/18 19:15:09;;;;;;;6.40;4.60;;;;;;;15.75;59.62;99884.94;1730591;82;25836;-61
2021/08/18 19:17:37;;;;;;;7.55;4.40;;;;;;;15.67;59.93;99887.50;1730515;82;25702;-61
2021/08/18 19:20:07;;;;;;;7.92;5.37;;;;;;;15.61;60.13;99885.39;1730368;82;25801;-61
2021/08/18 19:22:34;;;;;;;8.08;4.97;;;;;;;15.53;60.52;99889.09;1730801;82;25706;-61
2021/08/18 19:25:07;;;;;;;9.63;5.10;;;;;;;15.45;60.43;99892.22;1730362;82;27810;-61
2021/08/18 19:27:36;;;;;;;7.42;5.53;;;;;;;15.39;60.94;99890.89;1730389;82;25646;-60
2021/08/18 19:30:09;;;;;;;7.60;5.58;;;;;;;15.31;61.14;99892.08;1730750;82;26413;-62
2021/08/18 19:32:36;;;;;;;9.50;6.08;;;;;;;15.25;61.53;99889.96;1730456;82;25722;-62
2021/08/18 19:35:05;;;;;;;9.03;5.72;;;;;;;15.20;61.56;99886.13;1730451;82;25761;-61
2021/08/18 19:37:37;;;;;;;8.93;5.72;;;;;;;15.15;61.89;99883.67;1730683;82;27471;-61
2021/08/18 19:40:09;;;;;;;8.25;5.72;;;;;;;15.09;62.26;99891.31;1702139;83;26367;-62
2021/08/18 19:42:37;;;;;;;11.55;5.85;;;;;;;15.05;62.54;99887.69;1723268;83;25741;-61
2021/08/18 19:45:07;;;;;;;8.63;5.78;;;;;;;14.98;62.65;99883.42;1725736;83;25788;-61
2021/08/18 19:47:34;;;;;;;10.32;6.05;;;;;;;14.92;62.87;99881.53;1723625;83;25901;-61
2021/08/18 19:50:04;;;;;;;10.93;5.97;;;;;;;14.88;63.23;99880.08;1696463;83;26529;-62
2021/08/18 19:52:31;;;;;;;10.72;5.83;;;;;;;14.84;63.56;99880.53;1723657;83;25944;-60
2021/08/18 19:54:58;;;;;;;7.22;5.72;;;;;;;14.79;63.58;99877.27;1725698;82;25775;-60
2021/08/18 19:57:25;;;;;;;12.05;6.40;;;;;;;14.73;63.66;99878.10;1723595;83;25692;-61
2021/08/18 19:59:52;;;;;;;12.15;6.60;;;;;;;14.72;64.14;99883.31;1725709;83;25709;-61
2021/08/18 20:02:19;;;;;;;8.98;6.03;;;;;;;14.66;64.37;99870.53;1723636;83;28161;-60
2021/08/18 20:04:48;;;;;;;9.78;6.70;;;;;;;14.61;64.43;99863.97;1725631;83;25777;-60
2021/08/18 20:07:15;;;;;;;10.72;6.40;;;;;;;14.57;64.73;99857.04;1723748;83;32520;-60
2021/08/18 20:09:41;;;;;;;13.43;6.72;;;;;;;14.52;64.90;99857.28;1725641;83;25784;-60
2021/08/18 20:12:09;;;;;;;11.73;6.22;;;;;;;14.48;65.07;99862.40;1723625;83;25624;-61
2021/08/18 20:14:36;;;;;;;11.93;6.47;;;;;;;14.45;65.40;99868.52;1725651;83;27516;-61
2021/08/18 20:17:04;;;;;;;11.15;5.83;;;;;;;14.41;65.66;99867.06;1723421;83;25703;-61
2021/08/18 20:19:31;;;;;;;7.70;5.95;;;;;;;14.37;65.48;99864.82;1725679;83;25702;-61
2021/08/18 20:21:59;;;;;;;9.55;5.85;;;;;;;14.33;65.73;99857.89;1723606;83;26151;-60
2021/08/18 20:24:26;;;;;;;9.45;5.90;;;;;;;14.31;66.01;99860.75;1725755;83;25714;-61
2021/08/18 20:26:53;;;;;;;8.35;6.03;;;;;;;14.30;65.96;99857.79;1723639;83;28061;-61
2021/08/18 20:29:19;;;;;;;12.33;6.42;;;;;;;14.29;66.05;99852.14;1725641;83;25895;-60
2021/08/18 20:31:46;;;;;;;11.65;5.80;;;;;;;14.28;66.25;99854.05;1723585;83;25766;-61
2021/08/18 20:34:13;;;;;;;9.25;5.87;;;;;;;14.28;66.56;99851.91;1725753;82;25868;-61
2021/08/18 20:36:42;;;;;;;7.47;5.87;;;;;;;14.27;66.76;99857.92;1723635;83;25719;-61
2021/08/18 20:39:11;;;;;;;12.20;6.55;;;;;;;14.28;66.80;99860.07;1726191;82;27530;-62
2021/08/18 20:41:41;;;;;;;13.22;5.67;;;;;;;14.26;67.18;99860.98;1698311;84;25736;-61
2021/08/18 20:44:11;;;;;;;12.43;6.10;;;;;;;14.24;67.38;99859.97;1730700;82;25669;-61
2021/08/18 20:46:39;;;;;;;8.70;5.85;;;;;;;14.26;67.39;99854.19;1728478;82;25779;-60
2021/08/18 20:49:12;;;;;;;11.35;6.08;;;;;;;14.26;67.56;99863.70;1730636;82;25766;-61
2021/08/18 20:51:40;;;;;;;9.93;6.50;;;;;;;14.26;67.76;99850.89;1728460;83;27554;-61
2021/08/18 20:54:09;;;;;;;14.40;6.33;;;;;;;14.28;67.62;99855.98;1730523;82;25766;-62
2021/08/18 20:56:35;;;;;;;10.85;6.30;;;;;;;14.29;67.77;99848.84;1728497;83;25768;-61
2021/08/18 20:59:04;;;;;;;11.35;5.90;;;;;;;14.32;67.84;99857.69;1730389;82;25974;-61
2021/08/18 21:01:31;;;;;;;8.83;6.00;;;;;;;14.35;67.85;99856.19;1728541;83;25719;-61
2021/08/18 21:03:58;;;;;;;10.82;6.70;;;;;;;14.35;67.95;99857.55;1730725;82;27635;-61
2021/08/18 21:06:26;;;;;;;10.08;6.20;;;;;;;14.35;68.17;99853.47;1728336;83;25670;-61
2021/08/18 21:08:53;;;;;;;9.80;6.03;;;;;;;14.37;68.02;99853.94;1730569;82;25637;-61
2021/08/18 21:11:20;;;;;;;9.38;6.00;;;;;;;14.34;68.14;99845.89;1728490;83;27630;-60
2021/08/18 21:13:46;;;;;;;10.48;5.83;;;;;;;14.38;68.21;99847.34;1730523;82;25832;-61
2021/08/18 21:16:13;;;;;;;13.03;6.25;;;;;;;14.38;68.22;99850.06;1728540;83;28112;-61
2021/08/18 21:18:41;;;;;;;9.85;6.22;;;;;;;14.40;68.33;99854.59;1705745;82;25988;-61
2021/08/18 21:21:10;;;;;;;13.22;6.20;;;;;;;14.39;68.29;99840.78;1728469;82;25705;-61
2021/08/18 21:23:38;;;;;;;10.28;5.65;;;;;;;14.40;68.43;99851.86;1730809;82;26114;-61
2021/08/18 21:26:06;;;;;;;8.40;5.72;;;;;;;14.42;68.35;99846.89;1728620;82;25688;-61
2021/08/18 21:28:36;;;;;;;11.60;5.37;;;;;;;14.45;68.24;99852.20;1730719;82;27356;-61
2021/08/18 21:31:03;;;;;;;8.73;5.03;;;;;;;14.48;68.20;99853.66;1700031;83;25768;-61
2021/08/18 21:33:31;;;;;;;13.48;5.45;;;;;;;14.50;68.18;99847.87;1705993;83;25776;-61
2021/08/18 21:35:58;;;;;;;11.73;5.55;;;;;;;14.52;68.06;99850.48;1706013;83;25754;-61
2021/08/18 21:38:26;;;;;;;7.20;5.22;;;;;;;14.55;68.18;99853.85;1706112;84;25741;-61
2021/08/18 21:40:52;;;;;;;9.63;5.45;;;;;;;14.57;68.04;99851.59;1706007;83;27511;-61
2021/08/18 21:43:19;;;;;;;7.28;5.10;;;;;;;14.61;67.90;99850.91;1705928;83;27419;-61
2021/08/18 21:45:45;;;;;;;7.58;4.75;;;;;;;14.63;67.85;99850.02;1705955;84;25695;-61
2021/08/18 21:48:14;;;;;;;9.05;4.70;;;;;;;14.65;67.84;99850.45;1706006;84;25638;-61
2021/08/18 21:50:41;;;;;;;7.37;4.87;;;;;;;14.68;67.89;99851.13;1706393;83;25758;-61
2021/08/18 21:53:08;;;;;;;7.83;4.75;;;;;;;14.70;67.95;99848.84;1706060;83;29757;-61
2021/08/18 21:55:35;;;;;;;9.10;4.65;;;;;;;14.73;67.77;99850.30;1706000;83;26037;-61
2021/08/18 21:58:03;;;;;;;11.33;4.60;;;;;;;14.73;67.58;99848.94;1705982;84;25665;-60
2021/08/18 22:00:30;;;;;;;9.50;4.97;;;;;;;14.75;67.54;99847.23;1705915;84;25655;-61
2021/08/18 22:02:57;;;;;;;6.05;4.65;;;;;;;14.79;67.55;99839.16;1706033;84;25707;-61
2021/08/18 22:05:23;;;;;;;10.15;4.25;;;;;;;14.81;67.35;99848.55;1705974;84;27217;-61
2021/08/18 22:07:49;;;;;;;8.30;4.70;;;;;;;14.84;67.31;99847.08;1705997;84;25873;-60
2021/08/18 22:10:16;;;;;;;9.63;4.92;;;;;;;14.87;67.20;99838.21;1705941;83;26435;-60
2021/08/18 22:12:43;;;;;;;7.62;4.50;;;;;;;14.89;67.08;99835.34;1706024;84;25703;-61
2021/08/18 22:15:11;;;;;;;6.30;4.50;;;;;;;14.92;66.94;99831.94;1705961;84;25759;-61
2021/08/18 22:17:38;;;;;;;9.88;4.25;;;;;;;14.96;67.00;99828.52;1691608;84;27996;-61
2021/08/18 22:20:06;;;;;;;8.35;4.78;;;;;;;14.95;66.94;99826.37;1705889;83;25920;-61
2021/08/18 22:22:36;;;;;;;7.50;4.33;;;;;;;14.97;66.92;99820.58;1706073;84;25773;-61
2021/08/18 22:25:06;;;;;;;7.50;4.42;;;;;;;14.98;66.85;99821.56;1705978;83;25643;-61
2021/08/18 22:27:32;;;;;;;6.12;4.30;;;;;;;15.01;66.80;99822.81;1706189;83;25818;-61
2021/08/18 22:29:58;;;;;;;7.35;4.62;;;;;;;15.03;66.68;99821.30;1706022;83;27424;-61
2021/08/18 22:32:25;;;;;;;6.78;4.45;;;;;;;15.05;66.65;99821.77;1705901;84;25670;-60
2021/08/18 22:34:51;;;;;;;12.65;4.67;;;;;;;15.05;66.57;99823.13;1706017;84;25691;-61
2021/08/18 22:37:18;;;;;;;11.20;4.60;;;;;;;15.07;66.59;99818.70;1705997;83;25698;-60
2021/08/18 22:39:44;;;;;;;7.45;4.45;;;;;;;15.08;66.69;99823.77;1706500;83;25623;-61
2021/08/18 22:42:11;;;;;;;7.30;4.70;;;;;;;15.12;66.66;99823.88;1715021;83;27501;-61
2021/08/18 22:44:37;;;;;;;7.58;4.40;;;;;;;15.12;66.54;99819.22;1714865;83;25675;-61
2021/08/18 22:47:04;;;;;;;8.83;5.37;;;;;;;15.12;66.58;99821.95;1714829;83;25912;-60
2021/08/18 22:49:30;;;;;;;6.03;4.25;;;;;;;15.12;66.49;99820.58;1714854;83;25733;-61
2021/08/18 22:51:57;;;;;;;7.53;4.40;;;;;;;15.12;66.53;99819.22;1714939;83;25924;-60
2021/08/18 22:54:23;;;;;;;8.33;4.80;;;;;;;15.11;66.43;99815.48;1688337;83;29674;-61
2021/08/18 22:56:49;;;;;;;8.68;4.80;;;;;;;15.11;66.51;99815.48;1714803;83;25941;-61
2021/08/18 22:59:16;;;;;;;8.43;4.17;;;;;;;15.10;66.42;99822.06;1714835;83;25757;-61
2021/08/18 23:01:42;;;;;;;8.50;4.47;;;;;;;15.09;66.50;99822.64;1714851;83;27716;-61
2021/08/18 23:04:09;;;;;;;6.90;5.08;;;;;;;15.09;66.41;99822.64;1714921;83;25712;-61
2021/08/18 23:06:36;;;;;;;8.35;4.90;;;;;;;15.09;66.39;99823.22;1714758;83;27555;-60
2021/08/18 23:09:05;;;;;;;6.70;4.50;;;;;;;15.10;66.47;99826.95;1714860;83;25790;-61
2021/08/18 23:11:31;;;;;;;10.60;4.27;;;;;;;15.10;66.43;99822.88;1715143;83;25790;-61
2021/08/18 23:13:58;;;;;;;7.33;4.22;;;;;;;15.11;66.39;99821.71;1714787;83;26622;-61
2021/08/18 23:16:24;;;;;;;8.70;4.40;;;;;;;15.09;66.44;99813.11;1688268;83;25826;-60
2021/08/18 23:18:50;;;;;;;7.80;4.72;;;;;;;15.09;66.43;99813.11;1714885;83;28118;-60
2021/08/18 23:21:17;;;;;;;6.33;4.08;;;;;;;15.08;66.39;99815.59;1714733;83;25939;-61
2021/08/18 23:23:44;;;;;;;7.17;4.12;;;;;;;15.08;66.43;99814.23;1714839;83;25737;-61
2021/08/18 23:26:10;;;;;;;7.95;4.12;;;;;;;15.08;66.47;99812.09;1714791;83;25691;-61
2021/08/18 23:28:37;;;;;;;15.85;14.43;;;;;;;15.09;66.52;99819.13;1688261;83;25825;-60
2021/08/18 23:31:03;;;;;;;6.78;4.90;;;;;;;15.09;66.51;99814.47;1714892;83;27469;-60
2021/08/18 23:33:30;;;;;;;5.47;4.22;;;;;;;15.08;66.52;99812.88;1688214;83;25808;-61
2021/08/18 23:35:56;;;;;;;6.97;4.08;;;;;;;15.09;66.52;99814.47;1714776;83;25748;-61
2021/08/18 23:38:23;;;;;;;7.87;4.45;;;;;;;15.10;66.55;99813.34;1714874;83;26399;-61
2021/08/18 23:40:50;;;;;;;7.20;4.45;;;;;;;15.10;66.66;99809.25;1714810;83;25654;-61
2021/08/18 23:43:18;;;;;;;6.42;4.03;;;;;;;15.10;66.63;99811.98;1714821;83;27649;-61
2021/08/18 23:45:44;;;;;;;6.12;4.17;;;;;;;15.09;66.79;99821.28;1688471;83;25806;-61
2021/08/18 23:48:12;;;;;;;6.35;4.25;;;;;;;15.09;66.69;99819.13;1714801;83;25714;-60
2021/08/18 23:50:38;;;;;;;7.92;4.17;;;;;;;15.10;66.71;99816.61;1714735;83;25733;-61
2021/08/18 23:53:05;;;;;;;5.78;4.50;;;;;;;15.10;66.84;99820.15;1714980;83;25760;-60
2021/08/18 23:55:32;;;;;;;13.38;5.30;;;;;;;15.09;66.76;99819.92;1714841;83;27462;-60
2021/08/18 23:57:58;;;;;;;6.00;4.58;;;;;;;15.08;66.83;99818.32;1714811;83;27424;-60
